createdAt,value
2018-12-27T00:02:05.001Z,101085.65
2018-12-27T00:05:07.003Z,101084.86
2018-12-27T00:08:08.961Z,101090.47
2018-12-27T00:11:10.877Z,101085.28
2018-12-27T00:14:12.862Z,101079.95
2018-12-27T00:17:14.800Z,101085.61
2018-12-27T00:20:16.729Z,101091.08
2018-12-27T00:23:18.664Z,101090.61
2018-12-27T00:26:20.683Z,101079.55
2018-12-27T00:29:22.624Z,101088.55
2018-12-27T00:32:24.601Z,101079.01
2018-12-27T00:35:26.589Z,101079.01
2018-12-27T00:38:28.813Z,101076.75
2018-12-27T00:41:30.782Z,101088.63
2018-12-27T00:44:32.740Z,101091.21
2018-12-27T00:47:34.767Z,101093.61
2018-12-27T00:50:36.755Z,101088.42
2018-12-27T00:53:38.696Z,101083.56
2018-12-27T00:56:40.646Z,101083.56
2018-12-27T00:59:42.721Z,101075.87
2018-12-27T01:02:44.644Z,101072.48
2018-12-27T01:05:46.739Z,101061.23
2018-12-27T01:08:48.702Z,101062.78
2018-12-27T01:11:50.643Z,101064.34
2018-12-27T01:14:52.636Z,101064.84
2018-12-27T01:17:54.583Z,101063.48
2018-12-27T01:20:56.544Z,101066.28
2018-12-27T01:23:58.515Z,101058.97
2018-12-27T01:27:00.517Z,101051.30
2018-12-27T01:30:02.554Z,101055.41
2018-12-27T01:33:05.781Z,101062.78
2018-12-27T01:36:07.719Z,101052.45
2018-12-27T01:39:09.870Z,101059.22
2018-12-27T01:42:11.759Z,101059.28
2018-12-27T01:45:13.690Z,101057.98
2018-12-27T01:48:15.696Z,101058.76
2018-12-27T01:51:17.603Z,101053.06
2018-12-27T01:54:19.534Z,101055.48
2018-12-27T01:57:21.459Z,101057.39
2018-12-27T02:00:23.487Z,101051.16
2018-12-27T02:03:26.634Z,101054.47
2018-12-27T02:06:28.848Z,101055.83
2018-12-27T02:09:30.813Z,101054.78
2018-12-27T02:12:32.751Z,101048.00
2018-12-27T02:15:34.703Z,101037.89
2018-12-27T02:18:36.723Z,101034.39
2018-12-27T02:21:38.636Z,101043.01
2018-12-27T02:24:40.584Z,101033.78
2018-12-27T02:27:42.565Z,101026.23
2018-12-27T02:30:44.493Z,101027.29
2018-12-27T02:33:46.405Z,101020.28
2018-12-27T02:36:48.350Z,101018.19
2018-12-27T02:39:50.540Z,101011.34
2018-12-27T02:42:52.839Z,101009.50
2018-12-27T02:45:54.789Z,101006.34
2018-12-27T02:48:56.869Z,101000.39
2018-12-27T02:51:58.772Z,100992.89
2018-12-27T02:55:00.842Z,100993.50
2018-12-27T02:58:02.791Z,100988.19
2018-12-27T03:01:04.931Z,100997.00
2018-12-27T03:04:07.839Z,100985.31
2018-12-27T03:07:09.879Z,100986.68
2018-12-27T03:10:11.866Z,100979.61
2018-12-27T03:13:13.859Z,100984.00
2018-12-27T03:16:15.805Z,100977.27
2018-12-27T03:19:17.919Z,100984.77
2018-12-27T03:22:19.990Z,100990.36
2018-12-27T03:25:21.923Z,100986.05
2018-12-27T03:28:23.900Z,100992.12
2018-12-27T03:31:25.820Z,100981.16
2018-12-27T03:34:27.786Z,100989.20
2018-12-27T03:37:30.896Z,100977.77
2018-12-27T03:40:33.240Z,100987.34
2018-12-27T03:43:35.243Z,100979.19
2018-12-27T03:46:37.196Z,100971.18
2018-12-27T03:49:39.216Z,100977.77
2018-12-27T03:52:41.109Z,100971.80
2018-12-27T03:55:43.162Z,100970.84
2018-12-27T03:58:45.200Z,100970.36
2018-12-27T04:01:47.222Z,100976.61
2018-12-27T04:04:50.282Z,100975.84
2018-12-27T04:07:52.338Z,100973.98
2018-12-27T04:10:54.284Z,100968.83
2018-12-27T04:13:56.275Z,100979.30
2018-12-27T04:16:58.192Z,100972.22
2018-12-27T04:20:00.261Z,100967.02
2018-12-27T04:23:02.172Z,100961.44
2018-12-27T04:26:04.332Z,100970.14
2018-12-27T04:29:06.365Z,100962.53
2018-12-27T04:32:08.571Z,100960.17
2018-12-27T04:35:10.968Z,100959.89
2018-12-27T04:38:13.006Z,100965.66
2018-12-27T04:41:14.977Z,100954.10
2018-12-27T04:44:17.155Z,100961.72
2018-12-27T04:47:19.246Z,100961.72
2018-12-27T04:50:21.222Z,100965.37
2018-12-27T04:53:23.171Z,100962.63
2018-12-27T04:56:25.143Z,100957.61
2018-12-27T04:59:27.112Z,100949.32
2018-12-27T05:02:29.159Z,100948.52
2018-12-27T05:05:31.118Z,100956.78
2018-12-27T05:08:33.212Z,100958.98
2018-12-27T05:11:35.210Z,100966.42
2018-12-27T05:14:37.182Z,100963.73
2018-12-27T05:17:39.151Z,100971.73
2018-12-27T05:20:41.133Z,100969.27
2018-12-27T05:23:44.215Z,100965.55
2018-12-27T05:26:46.133Z,100974.47
2018-12-27T05:29:48.082Z,100978.03
2018-12-27T05:32:50.034Z,100983.56
2018-12-27T05:35:52.981Z,100971.46
2018-12-27T05:38:54.966Z,100978.95
2018-12-27T05:41:56.890Z,100977.88
2018-12-27T05:44:58.945Z,100977.27
2018-12-27T05:48:00.886Z,100974.25
2018-12-27T05:51:02.919Z,100973.27
2018-12-27T05:54:04.882Z,100974.14
2018-12-27T05:57:06.823Z,100969.75
2018-12-27T06:00:08.792Z,100963.13
2018-12-27T06:03:10.846Z,100966.13
2018-12-27T06:06:12.790Z,100970.52
2018-12-27T06:09:14.940Z,100968.48
2018-12-27T06:12:16.931Z,100971.78
2018-12-27T06:15:18.955Z,100968.58
2018-12-27T06:18:20.925Z,100964.74
2018-12-27T06:21:22.958Z,100958.98
2018-12-27T06:24:25.546Z,100962.59
2018-12-27T06:27:27.539Z,100963.38
2018-12-27T06:30:29.483Z,100946.65
2018-12-27T06:33:31.441Z,100951.82
2018-12-27T06:36:33.391Z,100958.13
2018-12-27T06:39:35.486Z,100953.69
2018-12-27T06:42:37.434Z,100957.02
2018-12-27T06:45:39.513Z,100949.08
2018-12-27T06:48:41.459Z,100947.11
2018-12-27T06:51:43.393Z,100941.13
2018-12-27T06:54:45.346Z,100937.84
2018-12-27T06:57:47.351Z,100932.84
2018-12-27T07:00:49.296Z,100925.36
2018-12-27T07:03:51.337Z,100922.83
2018-12-27T07:06:53.286Z,100927.27
2018-12-27T07:09:55.379Z,100925.03
2018-12-27T07:12:57.396Z,100921.70
2018-12-27T07:15:59.499Z,100927.08
2018-12-27T07:19:01.763Z,100933.64
2018-12-27T07:22:03.809Z,100936.48
2018-12-27T07:25:05.935Z,100932.66
2018-12-27T07:28:08.130Z,100919.38
2018-12-27T07:31:10.197Z,100927.37
2018-12-27T07:34:12.520Z,100922.00
2018-12-27T07:37:14.587Z,100934.09
2018-12-27T07:40:16.739Z,100938.98
2018-12-27T07:43:18.692Z,100934.19
2018-12-27T07:46:20.784Z,100940.91
2018-12-27T07:49:22.769Z,100924.47
2018-12-27T07:52:24.817Z,100943.16
2018-12-27T07:55:26.827Z,100936.58
2018-12-27T07:58:28.876Z,100937.17
2018-12-27T08:01:31.236Z,100950.97
2018-12-27T08:04:33.246Z,100943.39
2018-12-27T08:07:35.248Z,100951.57
2018-12-27T08:10:37.220Z,100945.42
2018-12-27T08:13:39.303Z,100941.05
2018-12-27T08:16:41.352Z,100954.28
2018-12-27T08:19:43.318Z,100952.69
2018-12-27T08:22:45.257Z,100961.20
2018-12-27T08:25:47.312Z,100958.81
2018-12-27T08:28:49.265Z,100961.08
2018-12-27T08:31:51.188Z,100958.66
2018-12-27T08:34:53.220Z,100963.64
2018-12-27T08:37:55.077Z,100964.54
2018-12-27T08:40:57.138Z,100959.09
2018-12-27T08:43:59.212Z,100962.58
2018-12-27T08:47:01.309Z,100968.94
2018-12-27T08:50:05.611Z,100952.54
2018-12-27T08:53:07.643Z,100956.42
2018-12-27T08:56:09.635Z,100959.76
2018-12-27T08:59:11.665Z,100943.52
2018-12-27T09:02:13.781Z,100955.95
2018-12-27T09:05:19.074Z,100957.02
2018-12-27T09:08:19.633Z,100957.70
2018-12-27T09:11:21.489Z,100960.14
2018-12-27T09:14:24.592Z,100943.19
2018-12-27T09:17:27.645Z,100949.27
2018-12-27T09:20:29.643Z,100940.00
2018-12-27T09:23:31.701Z,100944.50
2018-12-27T09:26:33.762Z,100937.25
2018-12-27T09:29:35.812Z,100937.38
2018-12-27T09:32:37.850Z,100937.86
2018-12-27T09:35:39.810Z,100934.93
2018-12-27T09:38:41.816Z,100930.81
2018-12-27T09:41:43.705Z,100928.88
2018-12-27T09:44:45.727Z,100927.23
2018-12-27T09:47:47.686Z,100918.80
2018-12-27T09:50:49.653Z,100920.45
2018-12-27T09:53:52.091Z,100925.16
2018-12-27T09:56:54.069Z,100918.37
2018-12-27T09:59:56.062Z,100915.40
2018-12-27T10:02:58.032Z,100912.70
2018-12-27T10:06:00.222Z,100904.83
2018-12-27T10:13:31.905Z,100902.81
2018-12-27T10:16:34.283Z,100886.47
2018-12-27T10:19:36.508Z,100878.28
2018-12-27T10:22:38.582Z,100876.91
2018-12-27T10:25:40.522Z,100878.64
2018-12-27T10:28:42.759Z,100873.19
2018-12-27T10:31:44.811Z,100870.19
2018-12-27T10:34:46.779Z,100867.17
2018-12-27T10:37:48.771Z,100871.34
2018-12-27T10:40:50.812Z,100861.47
2018-12-27T10:43:52.806Z,100861.22
2018-12-27T10:46:54.780Z,100857.06
2018-12-27T10:49:56.751Z,100848.00
2018-12-27T10:52:58.737Z,100848.23
2018-12-27T10:56:00.624Z,100841.85
2018-12-27T10:59:02.633Z,100833.87
2018-12-27T11:02:05.312Z,100838.03
2018-12-27T11:05:07.369Z,100828.16
2018-12-27T11:08:09.341Z,100827.88
2018-12-27T11:11:11.263Z,100827.07
2018-12-27T11:14:13.203Z,100817.45
2018-12-27T11:17:15.225Z,100821.85
2018-12-27T11:20:17.628Z,100811.40
2018-12-27T11:23:19.671Z,100812.48
2018-12-27T11:26:21.721Z,100803.94
2018-12-27T11:29:25.317Z,100807.19
2018-12-27T11:32:27.430Z,100808.78
2018-12-27T11:35:29.425Z,100801.90
2018-12-27T11:38:31.477Z,100798.56
2018-12-27T11:41:33.525Z,100813.40
2018-12-27T11:44:35.452Z,100811.23
2018-12-27T11:47:37.464Z,100804.09
2018-12-27T11:50:39.390Z,100806.01
2018-12-27T11:53:41.321Z,100811.01
2018-12-27T11:56:43.297Z,100810.73
2018-12-27T11:59:45.411Z,100808.49
2018-12-27T12:02:47.340Z,100796.08
2018-12-27T12:05:49.303Z,100801.23
2018-12-27T12:08:51.247Z,100799.61
2018-12-27T12:11:53.115Z,100792.48
2018-12-27T12:14:55.662Z,100787.56
2018-12-27T12:17:57.524Z,100793.05
2018-12-27T12:21:00.209Z,100789.43
2018-12-27T12:24:02.230Z,100787.40
2018-12-27T12:27:06.219Z,100772.77
2018-12-27T12:30:09.488Z,100780.08
2018-12-27T12:33:11.412Z,100777.59
2018-12-27T12:36:13.329Z,100776.95
2018-12-27T12:39:15.255Z,100765.94
2018-12-27T12:42:17.449Z,100772.30
2018-12-27T12:45:20.379Z,100777.48
2018-12-27T12:48:22.445Z,100775.08
2018-12-27T12:51:24.390Z,100782.52
2018-12-27T12:54:28.244Z,100783.38
2018-12-27T12:57:31.020Z,100791.08
2018-12-27T13:00:35.319Z,100797.94
2018-12-27T13:03:37.383Z,100792.87
2018-12-27T13:06:39.350Z,100786.50
2018-12-27T13:09:41.460Z,100796.09
2018-12-27T13:12:43.391Z,100798.86
2018-12-27T13:15:45.643Z,100800.91
2018-12-27T13:18:47.851Z,100791.27
2018-12-27T13:21:49.899Z,100797.88
2018-12-27T13:24:51.821Z,100803.66
2018-12-27T13:27:53.759Z,100800.86
2018-12-27T13:30:55.711Z,100793.07
2018-12-27T13:33:58.723Z,100792.33
2018-12-27T13:37:00.708Z,100791.37
2018-12-27T13:40:02.792Z,100798.23
2018-12-27T13:43:05.035Z,100800.21
2018-12-27T13:46:07.166Z,100797.44
2018-12-27T13:49:09.288Z,100810.07
2018-12-27T13:52:11.308Z,100805.31
2018-12-27T13:55:13.340Z,100808.58
2018-12-27T13:58:15.272Z,100805.47
2018-12-27T14:01:17.253Z,100804.69
2018-12-27T14:04:19.253Z,100806.47
2018-12-27T14:07:21.204Z,100794.26
2018-12-27T14:10:23.276Z,100794.19
2018-12-27T14:13:25.209Z,100797.24
2018-12-27T14:16:27.237Z,100792.96
2018-12-27T14:19:29.257Z,100801.50
2018-12-27T14:22:31.285Z,100808.36
2018-12-27T14:25:33.291Z,100799.61
2018-12-27T14:28:35.210Z,100796.28
2018-12-27T14:31:37.266Z,100795.73
2018-12-27T14:34:39.236Z,100803.38
2018-12-27T14:37:41.210Z,100804.24
2018-12-27T14:40:43.158Z,100801.94
2018-12-27T14:43:45.140Z,100807.63
2018-12-27T14:46:47.108Z,100799.13
2018-12-27T14:49:49.114Z,100808.38
2018-12-27T14:52:51.167Z,100798.47
2018-12-27T14:55:53.190Z,100798.47
2018-12-27T14:58:55.127Z,100797.09
2018-12-27T15:01:57.089Z,100801.80
2018-12-27T15:04:59.152Z,100794.83
2018-12-27T15:08:01.633Z,100792.56
2018-12-27T15:11:03.693Z,100787.85
2018-12-27T15:14:05.796Z,100799.06
2018-12-27T15:17:07.771Z,100791.22
2018-12-27T15:20:10.016Z,100799.87
2018-12-27T15:23:11.953Z,100799.05
2018-12-27T15:26:13.977Z,100798.97
2018-12-27T15:29:16.100Z,100793.72
2018-12-27T15:32:18.360Z,100801.16
2018-12-27T15:35:20.383Z,100799.28
2018-12-27T15:38:22.511Z,100801.23
2018-12-27T15:41:24.492Z,100805.12
2018-12-27T15:44:26.535Z,100806.14
2018-12-27T15:47:28.560Z,100806.37
2018-12-27T15:50:30.537Z,100810.70
2018-12-27T15:53:32.471Z,100800.13
2018-12-27T15:56:34.678Z,100799.34
2018-12-27T15:59:36.729Z,100796.73
2018-12-27T16:02:38.838Z,100804.13
2018-12-27T16:05:40.768Z,100803.32
2018-12-27T16:08:42.795Z,100798.94
2018-12-27T16:11:44.845Z,100788.48
2018-12-27T16:14:46.958Z,100786.52
2018-12-27T16:17:49.051Z,100799.06
2018-12-27T16:20:51.109Z,100790.34
2018-12-27T16:23:53.088Z,100801.21
2018-12-27T16:26:55.040Z,100798.73
2018-12-27T16:29:56.988Z,100801.71
2018-12-27T16:32:59.028Z,100805.18
2018-12-27T16:36:01.221Z,100805.08
2018-12-27T16:39:05.228Z,100811.00
2018-12-27T16:42:07.186Z,100809.38
2018-12-27T16:45:09.138Z,100806.59
2018-12-27T16:48:11.061Z,100803.08
2018-12-27T16:51:13.076Z,100789.93
2018-12-27T16:54:15.083Z,100797.59
2018-12-27T16:57:19.790Z,100791.84
2018-12-27T17:00:20.986Z,100797.00
2018-12-27T17:03:22.941Z,100795.36
2018-12-27T17:06:26.094Z,100796.46
2018-12-27T17:09:28.272Z,100798.69
2018-12-27T17:12:30.247Z,100796.95
2018-12-27T17:15:32.294Z,100805.93
2018-12-27T17:18:34.725Z,100798.00
2018-12-27T17:21:36.680Z,100801.82
2018-12-27T17:24:38.748Z,100805.72
2018-12-27T17:27:40.616Z,100801.98
2018-12-27T17:30:42.699Z,100808.05
2018-12-27T17:33:44.697Z,100814.62
2018-12-27T17:36:46.831Z,100803.66
2018-12-27T17:39:49.043Z,100803.08
2018-12-27T17:42:51.017Z,100806.54
2018-12-27T17:45:52.992Z,100806.31
2018-12-27T17:48:55.086Z,100799.79
2018-12-27T17:51:57.173Z,100799.25
2018-12-27T17:54:59.181Z,100800.43
2018-12-27T17:58:01.221Z,100803.73
2018-12-27T18:01:03.443Z,100799.11
2018-12-27T18:04:05.482Z,100807.69
2018-12-27T18:07:07.426Z,100805.22
2018-12-27T18:10:09.413Z,100794.27
2018-12-27T18:13:11.358Z,100796.83
2018-12-27T18:16:13.422Z,100788.98
2018-12-27T18:19:15.489Z,100783.22
2018-12-27T18:22:17.494Z,100789.76
2018-12-27T18:25:19.637Z,100783.13
2018-12-27T18:28:21.749Z,100787.73
2018-12-27T18:31:23.730Z,100779.21
2018-12-27T18:34:25.729Z,100784.95
2018-12-27T18:37:27.831Z,100783.50
2018-12-27T18:40:29.873Z,100785.06
2018-12-27T18:43:32.398Z,100792.03
2018-12-27T18:46:34.463Z,100781.95
2018-12-27T18:49:36.438Z,100785.78
2018-12-27T18:52:38.391Z,100780.39
2018-12-27T18:55:40.789Z,100771.58
2018-12-27T18:58:43.937Z,100778.03
2018-12-27T19:01:46.027Z,100785.87
2018-12-27T19:04:49.850Z,100785.00
2018-12-27T19:07:52.030Z,100777.39
2018-12-27T19:11:31.519Z,100781.91
2018-12-27T19:14:33.653Z,100775.69
2018-12-27T19:17:38.964Z,100785.06
2018-12-27T19:20:43.013Z,100783.50
2018-12-27T19:23:45.145Z,100781.82
2018-12-27T19:26:48.663Z,100782.45
2018-12-27T19:29:51.046Z,100787.92
2018-12-27T19:32:53.111Z,100786.47
2018-12-27T19:35:55.185Z,100791.41
2018-12-27T19:38:57.229Z,100792.45
2018-12-27T19:41:59.293Z,100792.34
2018-12-27T19:45:02.600Z,100789.89
2018-12-27T19:48:06.401Z,100792.91
2018-12-27T19:51:08.432Z,100788.23
2018-12-27T19:54:10.404Z,100794.04
2018-12-27T19:57:14.194Z,100793.32
2018-12-27T20:00:18.000Z,100797.70
2018-12-27T20:03:21.964Z,100796.83
2018-12-27T20:06:24.175Z,100790.98
2018-12-27T20:09:27.618Z,100796.23
2018-12-27T20:12:29.587Z,100786.69
2018-12-27T20:15:32.695Z,100791.72
2018-12-27T20:18:35.000Z,100787.16
2018-12-27T20:21:37.443Z,100787.66
2018-12-27T20:24:39.888Z,100783.22
2018-12-27T20:27:41.850Z,100782.04
2018-12-27T20:30:43.773Z,100766.20
2018-12-27T20:33:46.069Z,100763.14
2018-12-27T20:36:49.170Z,100757.02
2018-12-27T20:39:52.813Z,100757.16
2018-12-27T20:42:54.752Z,100767.85
2018-12-27T20:45:56.802Z,100766.20
2018-12-27T20:48:59.947Z,100762.78
2018-12-27T20:52:04.406Z,100764.64
2018-12-27T20:55:06.851Z,100762.42
2018-12-27T20:58:10.242Z,100760.35
2018-12-27T21:01:12.149Z,100764.33
2018-12-27T21:04:14.139Z,100752.02
2018-12-27T21:07:16.856Z,100758.27
2018-12-27T21:10:18.854Z,100747.81
2018-12-27T21:13:23.163Z,100752.16
2018-12-27T21:16:26.500Z,100740.88
2018-12-27T21:19:28.503Z,100740.88
2018-12-27T21:22:32.711Z,100739.51
2018-12-27T21:25:36.795Z,100730.23
2018-12-27T21:28:38.787Z,100742.75
2018-12-27T21:31:41.871Z,100729.05
2018-12-27T21:34:43.853Z,100724.08
2018-12-27T21:37:45.748Z,100718.33
2018-12-27T21:40:47.735Z,100713.53
2018-12-27T21:43:49.958Z,100719.67
2018-12-27T21:46:51.953Z,100730.31
2018-12-27T21:49:53.908Z,100722.74
2018-12-27T21:52:55.918Z,100718.14
2018-12-27T21:55:57.938Z,100716.23
2018-12-27T21:58:59.958Z,100715.22
2018-12-27T22:02:01.915Z,100723.70
2018-12-27T22:05:04.011Z,100721.84
2018-12-27T22:08:06.595Z,100720.80
2018-12-27T22:11:09.032Z,100722.26
2018-12-27T22:14:10.991Z,100721.16
2018-12-27T22:17:12.958Z,100715.45
2018-12-27T22:20:15.067Z,100714.67
2018-12-27T22:23:16.999Z,100715.55
2018-12-27T22:26:19.121Z,100708.70
2018-12-27T22:29:21.060Z,100710.63
2018-12-27T22:32:23.083Z,100703.03
2018-12-27T22:35:25.050Z,100709.33
2018-12-27T22:38:27.078Z,100710.47
2018-12-27T22:41:29.002Z,100703.62
2018-12-27T22:44:30.942Z,100699.67
2018-12-27T22:47:32.951Z,100711.13
2018-12-27T22:50:34.905Z,100716.41
2018-12-27T22:53:36.875Z,100711.48
2018-12-27T22:56:38.853Z,100715.28
2018-12-27T22:59:40.847Z,100705.77
2018-12-27T23:02:42.757Z,100701.47
2018-12-27T23:05:44.763Z,100701.47
2018-12-27T23:08:46.766Z,100692.44
2018-12-27T23:11:49.314Z,100697.14
2018-12-27T23:14:51.303Z,100696.05
2018-12-27T23:17:53.208Z,100686.91
2018-12-27T23:20:55.175Z,100688.08
2018-12-27T23:23:57.822Z,100690.72
2018-12-27T23:27:00.732Z,100683.56
2018-12-27T23:30:04.611Z,100679.17
2018-12-27T23:33:06.624Z,100681.00
2018-12-27T23:36:08.612Z,100677.17
2018-12-27T23:39:10.806Z,100685.97
2018-12-27T23:42:12.927Z,100690.64
2018-12-27T23:45:15.195Z,100688.76
2018-12-27T23:48:17.259Z,100686.84
2018-12-27T23:51:19.258Z,100684.97
2018-12-27T23:54:21.261Z,100694.29
2018-12-27T23:57:23.219Z,100704.73
